sensor_id;sensor_type;location;lat;lon;timestamp;pressure;altitude;pressure_sealevel;temperature;humidity
71907;BME280;59781;52.090;5.030;2023-03-01T00:00:40;103202.53;;;-0.41;100.00
71907;BME280;59781;52.090;5.030;2023-03-01T00:03:06;103207.72;;;-0.37;100.00
71907;BME280;59781;52.090;5.030;2023-03-01T00:05:32;103199.72;;;-0.35;100.00
71907;BME280;59781;52.090;5.030;2023-03-01T00:07:58;103206.94;;;-0.42;100.00
71907;BME280;59781;52.090;5.030;2023-03-01T00:10:24;103200.75;;;-0.41;100.00
71907;BME280;59781;52.090;5.030;2023-03-01T00:12:49;103203.69;;;-0.51;100.00
71907;BME280;59781;52.090;5.030;2023-03-01T00:15:15;103208.06;;;-0.50;100.00
71907;BME280;59781;52.090;5.030;2023-03-01T00:17:41;103202.25;;;-0.63;100.00
71907;BME280;59781;52.090;5.030;2023-03-01T00:20:07;103200.59;;;-0.67;100.00
71907;BME280;59781;52.090;5.030;2023-03-01T00:22:36;103198.78;;;-0.65;100.00
71907;BME280;59781;52.090;5.030;2023-03-01T00:25:03;103200.94;;;-0.81;100.00
71907;BME280;59781;52.090;5.030;2023-03-01T00:27:29;103200.09;;;-0.81;100.00
71907;BME280;59781;52.090;5.030;2023-03-01T00:29:55;103202.78;;;-0.83;100.00
71907;BME280;59781;52.090;5.030;2023-03-01T00:32:20;103208.22;;;-0.89;100.00
71907;BME280;59781;52.090;5.030;2023-03-01T00:34:46;103192.22;;;-0.84;100.00
71907;BME280;59781;52.090;5.030;2023-03-01T00:37:23;103194.78;;;-0.81;100.00
71907;BME280;59781;52.090;5.030;2023-03-01T00:39:49;103180.69;;;-0.82;100.00
71907;BME280;59781;52.090;5.030;2023-03-01T00:42:16;103186.03;;;-0.83;100.00
71907;BME280;59781;52.090;5.030;2023-03-01T00:44:42;103180.13;;;-0.93;100.00
71907;BME280;59781;52.090;5.030;2023-03-01T00:47:08;103191.69;;;-0.99;100.00
71907;BME280;59781;52.090;5.030;2023-03-01T00:49:34;103192.69;;;-1.03;100.00
71907;BME280;59781;52.090;5.030;2023-03-01T00:52:00;103190.81;;;-0.98;100.00
71907;BME280;59781;52.090;5.030;2023-03-01T00:54:25;103197.16;;;-1.05;100.00
71907;BME280;59781;52.090;5.030;2023-03-01T00:56:51;103186.88;;;-1.16;100.00
71907;BME280;59781;52.090;5.030;2023-03-01T00:59:17;103190.44;;;-1.18;100.00
71907;BME280;59781;52.090;5.030;2023-03-01T01:01:43;103189.09;;;-1.00;100.00
71907;BME280;59781;52.090;5.030;2023-03-01T01:04:12;103185.22;;;-0.85;100.00
71907;BME280;59781;52.090;5.030;2023-03-01T01:06:42;103182.59;;;-0.54;100.00
71907;BME280;59781;52.090;5.030;2023-03-01T01:09:12;103179.09;;;-0.55;100.00
71907;BME280;59781;52.090;5.030;2023-03-01T01:11:49;103181.28;;;-0.71;100.00
71907;BME280;59781;52.090;5.030;2023-03-01T01:14:17;103185.03;;;-0.79;100.00
71907;BME280;59781;52.090;5.030;2023-03-01T01:16:44;103182.19;;;-0.72;100.00
71907;BME280;59781;52.090;5.030;2023-03-01T01:19:13;103175.88;;;-0.66;100.00
71907;BME280;59781;52.090;5.030;2023-03-01T01:21:40;103164.88;;;-0.83;100.00
71907;BME280;59781;52.090;5.030;2023-03-01T01:24:08;103163.50;;;-0.98;100.00
71907;BME280;59781;52.090;5.030;2023-03-01T01:26:34;103160.25;;;-1.09;100.00
71907;BME280;59781;52.090;5.030;2023-03-01T01:29:03;103152.50;;;-1.16;100.00
71907;BME280;59781;52.090;5.030;2023-03-01T01:31:31;103160.41;;;-1.16;100.00
71907;BME280;59781;52.090;5.030;2023-03-01T01:34:01;103144.06;;;-1.31;100.00
71907;BME280;59781;52.090;5.030;2023-03-01T01:36:28;103148.72;;;-1.41;100.00
71907;BME280;59781;52.090;5.030;2023-03-01T01:38:54;103144.28;;;-1.40;100.00
71907;BME280;59781;52.090;5.030;2023-03-01T01:41:21;103140.38;;;-1.24;100.00
71907;BME280;59781;52.090;5.030;2023-03-01T01:44:14;103140.78;;;-1.41;100.00
71907;BME280;59781;52.090;5.030;2023-03-01T01:47:05;103137.19;;;-1.37;100.00
71907;BME280;59781;52.090;5.030;2023-03-01T01:49:47;103136.34;;;-1.40;100.00
71907;BME280;59781;52.090;5.030;2023-03-01T01:52:21;103131.19;;;-1.45;100.00
71907;BME280;59781;52.090;5.030;2023-03-01T01:55:07;103137.19;;;-1.38;100.00
71907;BME280;59781;52.090;5.030;2023-03-01T01:57:50;103135.16;;;-1.27;100.00
71907;BME280;59781;52.090;5.030;2023-03-01T02:00:25;103136.19;;;-1.33;100.00
71907;BME280;59781;52.090;5.030;2023-03-01T02:03:00;103130.03;;;-1.33;100.00
71907;BME280;59781;52.090;5.030;2023-03-01T02:05:47;103129.25;;;-1.38;100.00
71907;BME280;59781;52.090;5.030;2023-03-01T02:08:21;103126.97;;;-1.52;100.00
71907;BME280;59781;52.090;5.030;2023-03-01T02:10:51;103129.00;;;-1.63;100.00
71907;BME280;59781;52.090;5.030;2023-03-01T02:13:20;103120.00;;;-1.55;100.00
71907;BME280;59781;52.090;5.030;2023-03-01T02:15:45;103108.66;;;-1.60;100.00
71907;BME280;59781;52.090;5.030;2023-03-01T02:18:16;103121.03;;;-1.62;100.00
71907;BME280;59781;52.090;5.030;2023-03-01T02:20:48;103116.75;;;-1.66;100.00
71907;BME280;59781;52.090;5.030;2023-03-01T02:23:28;103115.84;;;-1.65;100.00
71907;BME280;59781;52.090;5.030;2023-03-01T02:26:30;103123.16;;;-1.78;100.00
71907;BME280;59781;52.090;5.030;2023-03-01T02:29:03;103122.94;;;-1.68;100.00
71907;BME280;59781;52.090;5.030;2023-03-01T02:31:31;103123.91;;;-1.71;100.00
71907;BME280;59781;52.090;5.030;2023-03-01T02:34:11;103123.94;;;-1.73;100.00
71907;BME280;59781;52.090;5.030;2023-03-01T02:36:52;103122.38;;;-1.81;100.00
71907;BME280;59781;52.090;5.030;2023-03-01T02:39:46;103117.00;;;-1.77;100.00
71907;BME280;59781;52.090;5.030;2023-03-01T02:42:21;103115.22;;;-1.78;100.00
71907;BME280;59781;52.090;5.030;2023-03-01T02:44:49;103109.28;;;-1.86;100.00
71907;BME280;59781;52.090;5.030;2023-03-01T02:47:15;103100.19;;;-1.74;100.00
71907;BME280;59781;52.090;5.030;2023-03-01T02:49:41;103100.13;;;-1.71;100.00
71907;BME280;59781;52.090;5.030;2023-03-01T02:55:11;103094.53;;;-1.59;100.00
71907;BME280;59781;52.090;5.030;2023-03-01T02:57:43;103094.53;;;-1.59;100.00
71907;BME280;59781;52.090;5.030;2023-03-01T03:00:14;103086.81;;;-1.68;100.00
71907;BME280;59781;52.090;5.030;2023-03-01T03:02:46;103087.94;;;-1.78;100.00
71907;BME280;59781;52.090;5.030;2023-03-01T03:05:20;103091.84;;;-1.93;100.00
71907;BME280;59781;52.090;5.030;2023-03-01T03:07:52;103082.19;;;-1.94;100.00
71907;BME280;59781;52.090;5.030;2023-03-01T03:10:33;103085.63;;;-1.90;100.00
71907;BME280;59781;52.090;5.030;2023-03-01T03:13:11;103081.31;;;-1.94;100.00
71907;BME280;59781;52.090;5.030;2023-03-01T03:15:39;103082.47;;;-2.06;100.00
71907;BME280;59781;52.090;5.030;2023-03-01T03:18:10;103081.53;;;-2.04;100.00
71907;BME280;59781;52.090;5.030;2023-03-01T03:20:40;103082.28;;;-1.98;100.00
71907;BME280;59781;52.090;5.030;2023-03-01T03:23:07;103083.34;;;-2.06;100.00
71907;BME280;59781;52.090;5.030;2023-03-01T03:25:33;103085.03;;;-2.03;100.00
71907;BME280;59781;52.090;5.030;2023-03-01T03:28:04;103087.38;;;-1.91;100.00
71907;BME280;59781;52.090;5.030;2023-03-01T03:30:37;103083.06;;;-1.93;100.00
71907;BME280;59781;52.090;5.030;2023-03-01T03:33:07;103070.59;;;-1.88;100.00
71907;BME280;59781;52.090;5.030;2023-03-01T03:35:40;103076.34;;;-2.08;100.00
71907;BME280;59781;52.090;5.030;2023-03-01T03:38:10;103071.06;;;-2.08;100.00
71907;BME280;59781;52.090;5.030;2023-03-01T03:40:48;103067.47;;;-2.04;100.00
71907;BME280;59781;52.090;5.030;2023-03-01T03:43:22;103069.66;;;-2.23;100.00
71907;BME280;59781;52.090;5.030;2023-03-01T03:45:50;103060.56;;;-2.11;100.00
71907;BME280;59781;52.090;5.030;2023-03-01T03:48:17;103058.88;;;-2.14;100.00
71907;BME280;59781;52.090;5.030;2023-03-01T03:50:49;103063.53;;;-2.25;100.00
71907;BME280;59781;52.090;5.030;2023-03-01T03:53:17;103062.91;;;-2.38;100.00
71907;BME280;59781;52.090;5.030;2023-03-01T03:55:44;103061.19;;;-2.39;100.00
71907;BME280;59781;52.090;5.030;2023-03-01T03:58:10;103055.94;;;-2.40;100.00
71907;BME280;59781;52.090;5.030;2023-03-01T04:00:40;103061.31;;;-2.43;100.00
71907;BME280;59781;52.090;5.030;2023-03-01T04:03:08;103054.25;;;-2.43;100.00
71907;BME280;59781;52.090;5.030;2023-03-01T04:05:37;103062.72;;;-2.28;100.00
71907;BME280;59781;52.090;5.030;2023-03-01T04:08:04;103061.22;;;-2.40;100.00
71907;BME280;59781;52.090;5.030;2023-03-01T04:10:38;103059.81;;;-2.56;100.00
71907;BME280;59781;52.090;5.030;2023-03-01T04:13:07;103074.81;;;-2.58;100.00
71907;BME280;59781;52.090;5.030;2023-03-01T04:15:35;103061.34;;;-2.46;100.00
71907;BME280;59781;52.090;5.030;2023-03-01T04:18:02;103073.47;;;-2.38;100.00
71907;BME280;59781;52.090;5.030;2023-03-01T04:20:31;103061.06;;;-2.33;100.00
71907;BME280;59781;52.090;5.030;2023-03-01T04:23:13;103051.91;;;-2.16;100.00
71907;BME280;59781;52.090;5.030;2023-03-01T04:25:55;103057.56;;;-2.33;100.00
71907;BME280;59781;52.090;5.030;2023-03-01T04:28:33;103060.25;;;-2.35;100.00
71907;BME280;59781;52.090;5.030;2023-03-01T04:31:10;103054.69;;;-2.63;100.00
71907;BME280;59781;52.090;5.030;2023-03-01T04:33:49;103061.34;;;-2.46;100.00
71907;BME280;59781;52.090;5.030;2023-03-01T04:36:18;103052.38;;;-2.79;100.00
71907;BME280;59781;52.090;5.030;2023-03-01T04:38:45;103053.44;;;-2.88;100.00
71907;BME280;59781;52.090;5.030;2023-03-01T04:41:14;103060.34;;;-2.81;100.00
71907;BME280;59781;52.090;5.030;2023-03-01T04:43:45;103055.41;;;-2.54;100.00
71907;BME280;59781;52.090;5.030;2023-03-01T04:46:13;103049.69;;;-2.35;100.00
71907;BME280;59781;52.090;5.030;2023-03-01T04:48:43;103051.69;;;-2.46;100.00
71907;BME280;59781;52.090;5.030;2023-03-01T04:51:10;103040.56;;;-2.60;100.00
71907;BME280;59781;52.090;5.030;2023-03-01T04:53:40;103047.72;;;-2.67;100.00
71907;BME280;59781;52.090;5.030;2023-03-01T04:56:06;103047.41;;;-2.51;100.00
71907;BME280;59781;52.090;5.030;2023-03-01T04:58:32;103035.03;;;-2.49;100.00
71907;BME280;59781;52.090;5.030;2023-03-01T05:00:58;103027.50;;;-2.27;100.00
71907;BME280;59781;52.090;5.030;2023-03-01T05:03:24;103035.44;;;-2.68;100.00
71907;BME280;59781;52.090;5.030;2023-03-01T05:05:52;103035.19;;;-2.57;100.00
71907;BME280;59781;52.090;5.030;2023-03-01T05:08:18;103027.25;;;-2.17;100.00
71907;BME280;59781;52.090;5.030;2023-03-01T05:10:52;103026.09;;;-2.42;100.00
71907;BME280;59781;52.090;5.030;2023-03-01T05:13:20;103030.47;;;-2.81;100.00
71907;BME280;59781;52.090;5.030;2023-03-01T05:15:54;103029.66;;;-2.86;100.00
71907;BME280;59781;52.090;5.030;2023-03-01T05:18:23;103025.44;;;-2.94;100.00
71907;BME280;59781;52.090;5.030;2023-03-01T05:20:55;103017.50;;;-2.92;100.00
71907;BME280;59781;52.090;5.030;2023-03-01T05:23:26;103020.25;;;-2.98;100.00
71907;BME280;59781;52.090;5.030;2023-03-01T05:25:52;103014.53;;;-2.77;100.00
71907;BME280;59781;52.090;5.030;2023-03-01T05:28:19;103013.53;;;-2.71;100.00
71907;BME280;59781;52.090;5.030;2023-03-01T05:30:46;103008.56;;;-2.86;100.00
71907;BME280;59781;52.090;5.030;2023-03-01T05:33:12;103003.44;;;-2.93;100.00
71907;BME280;59781;52.090;5.030;2023-03-01T05:35:41;102998.25;;;-2.97;100.00
71907;BME280;59781;52.090;5.030;2023-03-01T05:38:10;102994.41;;;-2.81;100.00
71907;BME280;59781;52.090;5.030;2023-03-01T05:40:40;102989.47;;;-2.98;100.00
71907;BME280;59781;52.090;5.030;2023-03-01T05:43:07;102992.06;;;-2.95;100.00
71907;BME280;59781;52.090;5.030;2023-03-01T05:45:36;102981.88;;;-3.11;100.00
71907;BME280;59781;52.090;5.030;2023-03-01T05:48:04;102983.44;;;-3.03;100.00
71907;BME280;59781;52.090;5.030;2023-03-01T05:50:36;102987.09;;;-3.10;100.00
71907;BME280;59781;52.090;5.030;2023-03-01T05:53:15;102977.50;;;-3.12;100.00
71907;BME280;59781;52.090;5.030;2023-03-01T05:55:44;102976.34;;;-2.99;100.00
71907;BME280;59781;52.090;5.030;2023-03-01T05:58:14;102970.34;;;-3.07;100.00
71907;BME280;59781;52.090;5.030;2023-03-01T06:00:44;102980.31;;;-3.22;100.00
71907;BME280;59781;52.090;5.030;2023-03-01T06:03:13;102972.44;;;-3.23;100.00
71907;BME280;59781;52.090;5.030;2023-03-01T06:05:40;102977.63;;;-3.20;100.00
71907;BME280;59781;52.090;5.030;2023-03-01T06:08:09;102978.13;;;-3.01;100.00
71907;BME280;59781;52.090;5.030;2023-03-01T06:10:36;102971.13;;;-3.02;100.00
71907;BME280;59781;52.090;5.030;2023-03-01T06:13:02;102979.81;;;-2.97;100.00
71907;BME280;59781;52.090;5.030;2023-03-01T06:15:28;102983.50;;;-3.06;100.00
71907;BME280;59781;52.090;5.030;2023-03-01T06:17:55;102977.31;;;-3.05;100.00
71907;BME280;59781;52.090;5.030;2023-03-01T06:20:27;102979.19;;;-3.10;100.00
71907;BME280;59781;52.090;5.030;2023-03-01T06:22:53;102985.47;;;-3.17;100.00
71907;BME280;59781;52.090;5.030;2023-03-01T06:25:22;102985.34;;;-3.09;100.00
71907;BME280;59781;52.090;5.030;2023-03-01T06:27:49;102980.00;;;-3.06;100.00
71907;BME280;59781;52.090;5.030;2023-03-01T06:30:19;102983.25;;;-2.95;100.00
71907;BME280;59781;52.090;5.030;2023-03-01T06:32:47;102981.56;;;-2.98;100.00
71907;BME280;59781;52.090;5.030;2023-03-01T06:35:15;102993.09;;;-3.02;100.00
71907;BME280;59781;52.090;5.030;2023-03-01T06:37:46;102987.13;;;-3.11;100.00
71907;BME280;59781;52.090;5.030;2023-03-01T06:40:14;102985.38;;;-3.11;100.00
71907;BME280;59781;52.090;5.030;2023-03-01T06:42:47;102991.50;;;-3.10;100.00
71907;BME280;59781;52.090;5.030;2023-03-01T06:45:14;102995.75;;;-3.05;100.00
71907;BME280;59781;52.090;5.030;2023-03-01T06:47:40;102989.41;;;-2.93;100.00
71907;BME280;59781;52.090;5.030;2023-03-01T06:50:06;102991.31;;;-3.01;100.00
71907;BME280;59781;52.090;5.030;2023-03-01T06:52:33;102991.94;;;-2.89;100.00
71907;BME280;59781;52.090;5.030;2023-03-01T06:54:58;102994.63;;;-2.92;100.00
71907;BME280;59781;52.090;5.030;2023-03-01T06:57:24;102988.38;;;-2.88;100.00
71907;BME280;59781;52.090;5.030;2023-03-01T06:59:51;102995.25;;;-2.79;100.00
71907;BME280;59781;52.090;5.030;2023-03-01T07:02:17;102989.88;;;-2.74;100.00
71907;BME280;59781;52.090;5.030;2023-03-01T07:04:43;102989.94;;;-2.77;100.00
71907;BME280;59781;52.090;5.030;2023-03-01T07:07:09;102988.94;;;-2.72;100.00
71907;BME280;59781;52.090;5.030;2023-03-01T07:09:35;102986.31;;;-2.72;100.00
71907;BME280;59781;52.090;5.030;2023-03-01T07:12:01;102978.03;;;-2.56;100.00
71907;BME280;59781;52.090;5.030;2023-03-01T07:14:27;102984.59;;;-2.34;100.00
71907;BME280;59781;52.090;5.030;2023-03-01T07:16:53;102985.56;;;-2.40;100.00
71907;BME280;59781;52.090;5.030;2023-03-01T07:19:20;102980.88;;;-2.25;100.00
71907;BME280;59781;52.090;5.030;2023-03-01T07:21:46;102980.34;;;-2.04;100.00
71907;BME280;59781;52.090;5.030;2023-03-01T07:24:12;102976.78;;;-2.03;100.00
71907;BME280;59781;52.090;5.030;2023-03-01T07:26:38;102987.13;;;-1.94;100.00
71907;BME280;59781;52.090;5.030;2023-03-01T07:29:06;102989.53;;;-1.85;100.00
71907;BME280;59781;52.090;5.030;2023-03-01T07:31:33;102992.22;;;-1.86;100.00
71907;BME280;59781;52.090;5.030;2023-03-01T07:33:59;102992.78;;;-1.74;100.00
71907;BME280;59781;52.090;5.030;2023-03-01T07:36:24;102996.63;;;-1.53;100.00
71907;BME280;59781;52.090;5.030;2023-03-01T07:38:51;102996.88;;;-1.62;100.00
71907;BME280;59781;52.090;5.030;2023-03-01T07:41:17;102997.63;;;-1.58;100.00
71907;BME280;59781;52.090;5.030;2023-03-01T07:43:43;102997.72;;;-1.29;100.00
71907;BME280;59781;52.090;5.030;2023-03-01T07:46:09;102993.91;;;-1.17;100.00
71907;BME280;59781;52.090;5.030;2023-03-01T07:48:35;102991.19;;;-0.84;100.00
71907;BME280;59781;52.090;5.030;2023-03-01T07:51:03;102988.66;;;0.49;100.00
71907;BME280;59781;52.090;5.030;2023-03-01T07:53:32;102982.56;;;1.64;100.00
71907;BME280;59781;52.090;5.030;2023-03-01T07:56:11;102970.97;;;2.31;96.28
71907;BME280;59781;52.090;5.030;2023-03-01T07:58:40;102970.34;;;2.85;94.06
71907;BME280;59781;52.090;5.030;2023-03-01T08:01:11;102969.16;;;3.30;91.29
71907;BME280;59781;52.090;5.030;2023-03-01T08:03:39;102972.31;;;3.57;90.53
71907;BME280;59781;52.090;5.030;2023-03-01T08:06:07;102966.94;;;3.95;87.37
71907;BME280;59781;52.090;5.030;2023-03-01T08:08:35;102968.56;;;4.32;85.94
71907;BME280;59781;52.090;5.030;2023-03-01T08:11:03;102968.88;;;4.60;83.95
71907;BME280;59781;52.090;5.030;2023-03-01T08:13:31;102970.00;;;4.89;78.71
71907;BME280;59781;52.090;5.030;2023-03-01T08:16:04;102968.19;;;5.23;80.35
71907;BME280;59781;52.090;5.030;2023-03-01T08:18:32;102963.63;;;5.57;75.03
71907;BME280;59781;52.090;5.030;2023-03-01T08:21:06;102954.72;;;6.03;70.75
71907;BME280;59781;52.090;5.030;2023-03-01T08:23:43;102954.31;;;6.25;70.89
71907;BME280;59781;52.090;5.030;2023-03-01T08:26:17;102946.28;;;6.84;66.39
71907;BME280;59781;52.090;5.030;2023-03-01T08:28:45;102952.53;;;6.99;62.98
71907;BME280;59781;52.090;5.030;2023-03-01T08:34:07;102938.25;;;6.70;62.15
71907;BME280;59781;52.090;5.030;2023-03-01T08:36:38;102935.94;;;6.49;61.71
71907;BME280;59781;52.090;5.030;2023-03-01T08:39:07;102942.16;;;6.78;62.06
71907;BME280;59781;52.090;5.030;2023-03-01T08:41:34;102943.25;;;7.45;59.15
71907;BME280;59781;52.090;5.030;2023-03-01T08:44:01;102940.91;;;6.41;58.32
71907;BME280;59781;52.090;5.030;2023-03-01T08:46:32;102946.19;;;7.28;57.34
71907;BME280;59781;52.090;5.030;2023-03-01T08:49:11;102935.47;;;7.82;56.08
71907;BME280;59781;52.090;5.030;2023-03-01T08:51:39;102936.91;;;7.46;54.88
71907;BME280;59781;52.090;5.030;2023-03-01T08:54:12;102933.91;;;7.92;52.52
71907;BME280;59781;52.090;5.030;2023-03-01T08:56:40;102934.31;;;7.86;53.33
71907;BME280;59781;52.090;5.030;2023-03-01T08:59:07;102930.94;;;7.97;53.35
71907;BME280;59781;52.090;5.030;2023-03-01T09:01:33;102934.66;;;7.94;51.57
71907;BME280;59781;52.090;5.030;2023-03-01T09:03:59;102930.88;;;7.84;50.17
71907;BME280;59781;52.090;5.030;2023-03-01T09:06:24;102928.78;;;6.93;52.47
71907;BME280;59781;52.090;5.030;2023-03-01T09:08:50;102922.72;;;7.32;51.67
71907;BME280;59781;52.090;5.030;2023-03-01T09:11:19;102918.00;;;8.16;49.84
71907;BME280;59781;52.090;5.030;2023-03-01T09:13:48;102903.66;;;8.55;49.81
71907;BME280;59781;52.090;5.030;2023-03-01T09:16:17;102895.50;;;8.70;48.28
71907;BME280;59781;52.090;5.030;2023-03-01T09:18:45;102901.72;;;8.57;48.36
71907;BME280;59781;52.090;5.030;2023-03-01T09:21:16;102899.81;;;8.07;48.11
71907;BME280;59781;52.090;5.030;2023-03-01T09:23:44;102891.19;;;7.89;48.63
71907;BME280;59781;52.090;5.030;2023-03-01T09:26:14;102896.53;;;8.16;49.12
71907;BME280;59781;52.090;5.030;2023-03-01T09:28:42;102888.72;;;9.26;47.09
71907;BME280;59781;52.090;5.030;2023-03-01T09:31:10;102876.66;;;9.56;46.46
71907;BME280;59781;52.090;5.030;2023-03-01T09:33:39;102884.25;;;9.01;46.98
71907;BME280;59781;52.090;5.030;2023-03-01T09:36:10;102886.78;;;8.66;47.05
71907;BME280;59781;52.090;5.030;2023-03-01T09:38:39;102890.75;;;7.83;48.81
71907;BME280;59781;52.090;5.030;2023-03-01T09:46:41;102887.44;;;9.19;47.19
71907;BME280;59781;52.090;5.030;2023-03-01T09:49:15;102886.72;;;9.41;45.81
71907;BME280;59781;52.090;5.030;2023-03-01T09:52:18;102887.97;;;8.37;46.71
71907;BME280;59781;52.090;5.030;2023-03-01T09:54:55;102877.63;;;9.78;45.58
71907;BME280;59781;52.090;5.030;2023-03-01T10:02:01;102880.72;;;9.85;44.20
71907;BME280;59781;52.090;5.030;2023-03-01T10:04:20;102877.97;;;10.44;43.17
71907;BME280;59781;52.090;5.030;2023-03-01T10:08:06;102871.09;;;9.94;43.59
71907;BME280;59781;52.090;5.030;2023-03-01T10:10:28;102872.91;;;10.28;43.71
71907;BME280;59781;52.090;5.030;2023-03-01T10:13:23;102873.06;;;10.49;42.57
71907;BME280;59781;52.090;5.030;2023-03-01T10:16:11;102868.28;;;10.98;42.58
71907;BME280;59781;52.090;5.030;2023-03-01T10:18:47;102869.03;;;10.55;43.15
71907;BME280;59781;52.090;5.030;2023-03-01T10:21:27;102871.56;;;9.40;43.30
71907;BME280;59781;52.090;5.030;2023-03-01T10:24:10;102857.72;;;9.92;41.86
71907;BME280;59781;52.090;5.030;2023-03-01T10:26:57;102855.31;;;10.58;41.36
71907;BME280;59781;52.090;5.030;2023-03-01T10:30:10;102851.63;;;10.93;40.55
71907;BME280;59781;52.090;5.030;2023-03-01T10:32:38;102851.31;;;10.17;40.84
71907;BME280;59781;52.090;5.030;2023-03-01T10:35:26;102851.03;;;10.55;40.57
71907;BME280;59781;52.090;5.030;2023-03-01T10:38:09;102843.22;;;11.29;40.22
71907;BME280;59781;52.090;5.030;2023-03-01T10:40:52;102849.84;;;12.00;38.52
71907;BME280;59781;52.090;5.030;2023-03-01T10:43:21;102849.25;;;11.22;39.16
71907;BME280;59781;52.090;5.030;2023-03-01T10:45:48;102847.81;;;11.06;39.28
71907;BME280;59781;52.090;5.030;2023-03-01T10:48:31;102848.56;;;11.40;38.18
71907;BME280;59781;52.090;5.030;2023-03-01T10:53:33;102835.59;;;10.69;39.59
71907;BME280;59781;52.090;5.030;2023-03-01T10:56:10;102828.16;;;10.03;40.09
71907;BME280;59781;52.090;5.030;2023-03-01T11:01:28;102829.53;;;10.20;40.37
71907;BME280;59781;52.090;5.030;2023-03-01T11:06:36;102809.91;;;9.26;42.56
71907;BME280;59781;52.090;5.030;2023-03-01T11:09:18;102794.78;;;9.71;40.45
71907;BME280;59781;52.090;5.030;2023-03-01T11:11:45;102790.47;;;10.03;39.85
71907;BME280;59781;52.090;5.030;2023-03-01T11:14:21;102790.63;;;9.67;40.55
71907;BME280;59781;52.090;5.030;2023-03-01T11:17:02;102790.03;;;10.54;39.49
71907;BME280;59781;52.090;5.030;2023-03-01T11:19:31;102788.22;;;10.55;39.61
71907;BME280;59781;52.090;5.030;2023-03-01T11:22:19;102781.72;;;10.35;39.83
71907;BME280;59781;52.090;5.030;2023-03-01T11:24:50;102786.41;;;9.87;40.43
71907;BME280;59781;52.090;5.030;2023-03-01T11:27:26;102775.47;;;10.34;39.66
71907;BME280;59781;52.090;5.030;2023-03-01T11:30:05;102772.63;;;10.58;39.64
71907;BME280;59781;52.090;5.030;2023-03-01T11:35:37;102772.34;;;11.27;37.98
71907;BME280;59781;52.090;5.030;2023-03-01T11:38:25;102762.00;;;11.11;38.45
71907;BME280;59781;52.090;5.030;2023-03-01T11:41:15;102761.91;;;11.34;37.75
71907;BME280;59781;52.090;5.030;2023-03-01T11:44:01;102764.28;;;10.61;38.64
71907;BME280;59781;52.090;5.030;2023-03-01T11:46:36;102764.44;;;10.49;39.69
71907;BME280;59781;52.090;5.030;2023-03-01T12:01:27;102752.56;;;10.62;39.01
71907;BME280;59781;52.090;5.030;2023-03-01T12:10:28;102751.56;;;11.71;36.08
71907;BME280;59781;52.090;5.030;2023-03-01T12:22:01;102738.69;;;11.22;36.55
71907;BME280;59781;52.090;5.030;2023-03-01T12:34:13;102725.47;;;11.07;36.70
71907;BME280;59781;52.090;5.030;2023-03-01T12:37:21;102726.94;;;9.78;38.19
71907;BME280;59781;52.090;5.030;2023-03-01T12:46:10;102714.34;;;11.01;36.67
71907;BME280;59781;52.090;5.030;2023-03-01T12:52:16;102704.97;;;10.84;36.09
71907;BME280;59781;52.090;5.030;2023-03-01T12:54:51;102696.84;;;11.48;36.94
71907;BME280;59781;52.090;5.030;2023-03-01T13:00:36;102694.28;;;11.46;36.72
71907;BME280;59781;52.090;5.030;2023-03-01T13:09:41;102687.88;;;11.68;35.39
71907;BME280;59781;52.090;5.030;2023-03-01T13:18:39;102672.88;;;10.92;37.94
71907;BME280;59781;52.090;5.030;2023-03-01T13:33:47;102647.53;;;10.29;37.97
71907;BME280;59781;52.090;5.030;2023-03-01T13:38:58;102640.47;;;9.94;35.27
71907;BME280;59781;52.090;5.030;2023-03-01T13:41:54;102631.03;;;10.22;34.90
71907;BME280;59781;52.090;5.030;2023-03-01T13:44:29;102633.53;;;9.23;36.52
71907;BME280;59781;52.090;5.030;2023-03-01T13:52:42;102628.69;;;9.04;36.59
71907;BME280;59781;52.090;5.030;2023-03-01T13:55:21;102623.03;;;8.85;37.50
71907;BME280;59781;52.090;5.030;2023-03-01T13:57:56;102616.63;;;8.75;37.75
71907;BME280;59781;52.090;5.030;2023-03-01T14:03:31;102599.56;;;9.33;36.76
71907;BME280;59781;52.090;5.030;2023-03-01T14:06:03;102604.41;;;8.71;37.26
71907;BME280;59781;52.090;5.030;2023-03-01T14:08:36;102594.44;;;8.49;37.21
71907;BME280;59781;52.090;5.030;2023-03-01T14:20:01;102582.38;;;8.89;37.09
71907;BME280;59781;52.090;5.030;2023-03-01T14:22:36;102584.34;;;8.87;36.42
71907;BME280;59781;52.090;5.030;2023-03-01T14:28:25;102564.47;;;9.12;37.86
71907;BME280;59781;52.090;5.030;2023-03-01T14:30:56;102560.91;;;9.01;38.63
71907;BME280;59781;52.090;5.030;2023-03-01T14:33:32;102554.81;;;9.10;38.12
71907;BME280;59781;52.090;5.030;2023-03-01T14:38:40;102547.19;;;8.93;36.42
71907;BME280;59781;52.090;5.030;2023-03-01T14:41:11;102547.88;;;8.37;37.83
71907;BME280;59781;52.090;5.030;2023-03-01T14:43:50;102545.19;;;8.72;37.97
71907;BME280;59781;52.090;5.030;2023-03-01T14:46:21;102541.97;;;8.56;38.56
71907;BME280;59781;52.090;5.030;2023-03-01T14:51:55;102550.69;;;8.71;37.61
71907;BME280;59781;52.090;5.030;2023-03-01T14:54:29;102555.63;;;8.53;37.73
71907;BME280;59781;52.090;5.030;2023-03-01T14:57:04;102561.03;;;8.16;37.56
71907;BME280;59781;52.090;5.030;2023-03-01T14:59:29;102544.88;;;8.29;37.97
71907;BME280;59781;52.090;5.030;2023-03-01T15:01:58;102554.22;;;8.23;38.15
71907;BME280;59781;52.090;5.030;2023-03-01T15:04:27;102541.22;;;8.30;39.29
71907;BME280;59781;52.090;5.030;2023-03-01T15:06:57;102544.13;;;8.03;39.79
71907;BME280;59781;52.090;5.030;2023-03-01T15:09:34;102535.22;;;8.26;40.06
71907;BME280;59781;52.090;5.030;2023-03-01T15:14:59;102530.53;;;7.93;39.73
71907;BME280;59781;52.090;5.030;2023-03-01T15:17:36;102526.69;;;7.85;38.41
71907;BME280;59781;52.090;5.030;2023-03-01T15:20:17;102521.00;;;7.89;37.37
71907;BME280;59781;52.090;5.030;2023-03-01T15:22:48;102515.06;;;7.97;36.76
71907;BME280;59781;52.090;5.030;2023-03-01T15:25:19;102522.56;;;8.28;37.56